Friday Harbor, WA (98250)

2:17 AM PDT on September 17, 2014 (GMT -0700)
San Juan Wx | Change Station
CLOSE
Current Station
Personal Weather Station
Location: Friday Harbor, WA
Elevation: 223 ft
Nearby Weather Stations

Elev 223 ft 48.51 °N, 123.04 °W | Updated 3 seconds ago

Clear
Clear
54.3 °F
Feels Like 54.3 °F
N
2.2
Wind Variable Wind from South

Today
High -- | Low -- °F
--% Chance of Precip.
Yesterday
High -- | Low -- °F
Precip. -- in
6:52 AM 7:20 PM
Last Quarter, 37% visible
Pressure 29.86 in
Visibility 10.0 miles
Clouds Clear
Dew Point 53 °F
Humidity 95%
Rainfall 0.00 in
Snow Depth Not available.
UV 0 out of 12
Pollen 1.10 out of 12
Air Quality Not available.
Flu Activity Not available.
METAR KFHR 170853Z AUTO 00000KT 10SM CLR 13/11 A2985 RMK AO2 SLP109 T01330111 58002

More Conditions Fewer Conditions

Pressure 29.86 in
Visibility 10.0 miles
Clouds Clear
Dew Point 53 °F
Humidity 95%
Rainfall 0.00 in
Snow Depth Not available.
UV 0 out of 12
Pollen 1.10 out of 12
Air Quality Not available.
Flu Activity Not available.
METAR KFHR 170853Z AUTO 00000KT 10SM CLR 13/11 A2985 RMK AO2 SLP109 T01330111 58002

More Conditions Fewer Conditions

10-Day Weather Forecast

Almanac

Astronomy

Sep. 17, 2014 Rise Set
Actual Time 6:52 AM PDT 7:20 PM PDT
Civil Twilight 6:20 AM PDT 7:51 PM PDT
Nautical Twilight 5:43 AM PDT 8:29 PM PDT
Astronomical Twilight 5:04 AM PDT 9:07 PM PDT
Moon 12:36 AM PDT 3:53 PM PDT
Length of Visible Light 13h 31m
Length of Day
12h 28m
Tomorrow will be 3m 31s shorter.
Last Quarter, 37% of the Moon is Illuminated
Today
Last Quarter
Sep 24
New
Oct 1
First Quarter
Oct 8
Full
Oct 15
Last Quarter

Today's Extremes

State Highs State Lows

Community

WunderPhotos

Upload Photos

1,753,991 photos uploaded!

Nearby

Snow Depth

Station Depth Elevation
Alpine Meadows 0 in 3500 ft
Spruce Springs 0 in 5700 ft
Swift Creek 1 in 3770 ft
Pigtail Peak 0 in 5900 ft
Harts Pass 0 in 6500 ft

Earthquake Activity

City Distance Mag. Time & Date
No recent earthquake activity has been reported nearby.
Minimum magnitude displayed is 2.5.

Coastal Water Temperatures

Place Temperature
Port Townsend, WA 52.0 °F
Friday Harbor, WA 53.1 °F
Port Angeles, WA 51.1 °F

Nearby Weather Stations